Time;durP1;ratioP1;P1;durP2;ratioP2;P2;SDS_P1;SDS_P2;PMS_P1;PMS_P2;Temp;Humidity;BMP_temperature;BMP_pressure;BME280_temperature;BME280_humidity;BME280_pressure;Samples;Min_cycle;Max_cycle;Signal;HPM_P1;HPM_P2
2020/12/21 00:02:25;;;;;;;14.55;12.23;;;5.60;99.90;;;;;;5095091;28;20271;-83
2020/12/21 00:04:51;;;;;;;13.50;11.20;;;5.60;99.90;;;;;;5094986;28;20192;-83
2020/12/21 00:07:17;;;;;;;20.08;11.60;;;5.60;99.90;;;;;;5094654;28;20246;-83
2020/12/21 00:09:43;;;;;;;15.75;11.48;;;5.60;99.90;;;;;;5095011;28;20318;-83
2020/12/21 00:12:09;;;;;;;17.25;11.80;;;5.50;99.90;;;;;;5094950;28;20220;-83
2020/12/21 00:14:36;;;;;;;13.93;11.07;;;5.50;99.90;;;;;;5099329;28;20715;-83
2020/12/21 00:17:02;;;;;;;13.07;10.15;;;5.60;99.90;;;;;;5093869;28;20315;-83
2020/12/21 00:19:29;;;;;;;16.00;11.80;;;5.50;99.90;;;;;;5094781;28;20639;-83
2020/12/21 00:21:55;;;;;;;15.98;11.45;;;5.50;99.90;;;;;;5094931;28;20593;-83
2020/12/21 00:24:21;;;;;;;15.52;10.90;;;5.50;99.90;;;;;;5094595;28;20322;-83
2020/12/21 00:26:49;;;;;;;15.35;11.63;;;5.60;99.90;;;;;;5094526;28;20697;-83
2020/12/21 00:29:15;;;;;;;13.57;10.95;;;5.50;99.90;;;;;;5094366;28;20272;-83
2020/12/21 00:31:44;;;;;;;15.30;11.65;;;5.70;99.90;;;;;;5094550;28;20282;-81
2020/12/21 00:34:10;;;;;;;14.90;11.48;;;5.50;99.90;;;;;;5094500;28;20280;-83
2020/12/21 00:36:37;;;;;;;14.95;11.57;;;5.50;99.90;;;;;;5094400;28;20718;-83
2020/12/21 00:39:04;;;;;;;16.00;11.82;;;5.50;99.90;;;;;;5094047;28;20227;-84
2020/12/21 00:41:31;;;;;;;16.13;11.82;;;5.50;99.90;;;;;;5094718;28;20193;-81
2020/12/21 00:43:57;;;;;;;14.77;10.43;;;5.50;99.90;;;;;;5094420;28;20226;-83
2020/12/21 00:46:25;;;;;;;15.23;11.10;;;5.50;99.90;;;;;;5094693;28;20189;-83
2020/12/21 00:48:52;;;;;;;14.75;11.55;;;5.50;99.90;;;;;;5094488;28;20191;-83
2020/12/21 00:51:19;;;;;;;16.92;12.45;;;5.50;99.90;;;;;;5103754;28;20706;-83
2020/12/21 00:53:46;;;;;;;14.65;11.80;;;5.50;99.90;;;;;;5096911;28;20216;-82
2020/12/21 00:56:12;;;;;;;16.10;13.25;;;5.50;99.90;;;;;;5094849;28;20275;-83
2020/12/21 00:58:40;;;;;;;15.18;12.20;;;5.50;99.90;;;;;;5094397;28;20299;-83
2020/12/21 01:01:08;;;;;;;18.05;11.40;;;5.40;99.90;;;;;;5094228;28;20215;-83
2020/12/21 01:03:34;;;;;;;17.75;11.93;;;5.40;99.90;;;;;;5092796;28;20279;-83
2020/12/21 01:06:01;;;;;;;14.65;11.18;;;5.40;99.90;;;;;;5094063;28;20188;-83
2020/12/21 01:08:27;;;;;;;15.85;11.63;;;5.40;99.90;;;;;;5093739;28;20279;-83
2020/12/21 01:10:53;;;;;;;16.48;11.73;;;5.40;99.90;;;;;;5093931;28;20276;-82
2020/12/21 01:13:19;;;;;;;16.80;11.63;;;5.40;99.90;;;;;;5094232;28;20188;-82
2020/12/21 01:15:45;;;;;;;18.23;11.65;;;5.40;99.90;;;;;;5094045;28;20537;-83
2020/12/21 01:18:11;;;;;;;17.23;12.68;;;5.40;99.90;;;;;;5092837;28;20307;-82
2020/12/21 01:20:37;;;;;;;19.38;12.45;;;5.40;99.90;;;;;;5094375;28;20276;-82
2020/12/21 01:23:07;;;;;;;15.15;11.52;;;5.40;99.90;;;;;;5094290;28;20704;-83
2020/12/21 01:25:33;;;;;;;16.45;12.18;;;5.40;99.90;;;;;;5093903;28;20731;-84
2020/12/21 01:27:59;;;;;;;19.52;12.73;;;5.30;99.90;;;;;;5094296;28;20184;-83
2020/12/21 01:30:26;;;;;;;17.65;12.38;;;5.30;99.90;;;;;;5094404;28;20283;-84
2020/12/21 01:32:52;;;;;;;18.67;14.02;;;5.30;99.90;;;;;;5093995;28;20216;-84
2020/12/21 01:35:18;;;;;;;17.67;13.60;;;5.30;99.90;;;;;;5093839;28;20193;-84
2020/12/21 01:37:44;;;;;;;15.70;11.45;;;5.30;99.90;;;;;;5094091;28;20772;-83
2020/12/21 01:40:11;;;;;;;16.95;11.90;;;5.30;99.90;;;;;;5093411;28;20632;-83
2020/12/21 01:42:37;;;;;;;18.00;12.57;;;5.30;99.90;;;;;;5093841;28;20188;-83
2020/12/21 01:45:03;;;;;;;15.98;12.38;;;5.30;99.90;;;;;;5093722;28;20272;-83
2020/12/21 01:47:29;;;;;;;20.13;12.35;;;5.30;99.90;;;;;;5090980;28;20587;-84
2020/12/21 01:49:55;;;;;;;20.08;12.85;;;5.30;99.90;;;;;;5093582;28;20275;-83
2020/12/21 01:52:21;;;;;;;19.65;12.93;;;5.30;99.90;;;;;;5093514;28;20226;-83
2020/12/21 01:54:48;;;;;;;18.23;12.63;;;5.30;99.90;;;;;;5093421;28;20621;-83
2020/12/21 01:57:15;;;;;;;16.45;11.82;;;5.30;99.90;;;;;;5093320;28;20204;-83
2020/12/21 01:59:42;;;;;;;21.00;13.15;;;5.30;99.90;;;;;;5093506;28;20181;-83
2020/12/21 02:02:11;;;;;;;20.98;13.38;;;5.30;99.90;;;;;;5093474;28;20188;-83
2020/12/21 02:04:37;;;;;;;18.52;13.30;;;5.30;99.90;;;;;;5093206;28;20615;-84
2020/12/21 02:07:05;;;;;;;19.10;13.57;;;5.40;99.90;;;;;;5093252;28;20592;-83
2020/12/21 02:09:31;;;;;;;19.48;13.63;;;5.40;99.90;;;;;;5093068;28;20318;-84
2020/12/21 02:11:57;;;;;;;17.95;12.90;;;5.50;99.90;;;;;;5093305;28;20212;-83
2020/12/21 02:14:24;;;;;;;18.03;12.47;;;5.50;99.90;;;;;;5093080;28;20220;-83
2020/12/21 02:16:50;;;;;;;18.55;12.88;;;5.50;99.90;;;;;;5092741;28;20454;-83
2020/12/21 02:19:18;;;;;;;16.00;12.48;;;5.60;99.90;;;;;;5092926;28;20192;-83
2020/12/21 02:21:45;;;;;;;20.55;13.60;;;5.60;99.90;;;;;;5092940;28;20184;-83
2020/12/21 02:24:11;;;;;;;18.80;12.80;;;5.60;99.90;;;;;;5093229;28;20603;-83
2020/12/21 02:26:37;;;;;;;19.05;11.98;;;5.60;99.90;;;;;;5093072;28;20275;-81
2020/12/21 02:29:03;;;;;;;15.40;12.17;;;5.60;99.90;;;;;;5093028;28;20219;-80
2020/12/21 02:31:29;;;;;;;15.60;12.45;;;5.60;99.90;;;;;;5092880;28;20474;-81
2020/12/21 02:33:55;;;;;;;17.20;12.45;;;5.60;99.90;;;;;;5092807;28;20600;-82
2020/12/21 02:36:21;;;;;;;20.80;13.27;;;5.70;99.90;;;;;;5092004;28;20216;-81
2020/12/21 02:38:48;;;;;;;15.60;12.55;;;5.70;99.90;;;;;;5092198;28;20931;-82
2020/12/21 02:41:15;;;;;;;16.83;12.60;;;5.70;99.90;;;;;;5092855;28;20272;-82
2020/12/21 02:43:41;;;;;;;19.90;13.50;;;5.80;99.90;;;;;;5092911;28;20263;-82
2020/12/21 02:46:07;;;;;;;17.08;12.63;;;5.80;99.90;;;;;;5092831;28;20267;-85
2020/12/21 02:48:33;;;;;;;17.33;12.05;;;5.80;99.90;;;;;;5092703;28;20184;-85
2020/12/21 02:50:59;;;;;;;15.10;11.90;;;5.80;99.90;;;;;;5092448;28;20220;-85
2020/12/21 02:53:25;;;;;;;14.32;11.70;;;5.70;99.90;;;;;;5092499;28;20830;-85
2020/12/21 02:55:52;;;;;;;19.30;14.07;;;5.80;99.90;;;;;;5092695;28;20273;-83
2020/12/21 02:58:18;;;;;;;19.55;13.23;;;5.80;99.90;;;;;;5092489;28;20303;-83
2020/12/21 03:00:44;;;;;;;15.98;12.05;;;5.80;99.90;;;;;;5092477;28;20184;-83
2020/12/21 03:03:11;;;;;;;17.27;13.30;;;5.80;99.90;;;;;;5092384;28;20347;-85
2020/12/21 03:05:37;;;;;;;15.05;12.25;;;5.90;99.90;;;;;;5092338;28;20854;-85
2020/12/21 03:08:06;;;;;;;17.37;13.57;;;5.90;99.90;;;;;;5092644;28;20188;-81
2020/12/21 03:10:32;;;;;;;16.23;12.95;;;5.90;99.90;;;;;;5092446;28;20443;-82
2020/12/21 03:12:59;;;;;;;15.90;11.98;;;5.90;99.90;;;;;;5099021;28;20190;-82
2020/12/21 03:15:25;;;;;;;13.82;11.60;;;5.90;99.90;;;;;;5093539;28;20409;-83
2020/12/21 03:17:51;;;;;;;17.33;13.00;;;5.90;99.90;;;;;;5092272;28;20246;-84
2020/12/21 03:20:17;;;;;;;17.00;12.82;;;5.90;99.90;;;;;;5092393;28;20854;-84
2020/12/21 03:22:43;;;;;;;17.90;12.75;;;5.90;99.90;;;;;;5092576;28;20185;-82
2020/12/21 03:25:09;;;;;;;17.03;12.67;;;5.90;99.90;;;;;;5092284;28;20221;-82
2020/12/21 03:27:35;;;;;;;16.13;11.65;;;5.90;99.90;;;;;;5075696;28;20772;-84
2020/12/21 03:30:04;;;;;;;18.70;13.43;;;6.00;99.90;;;;;;5092263;28;20208;-84
2020/12/21 03:32:30;;;;;;;18.10;13.80;;;6.00;99.90;;;;;;5092124;28;20189;-84
2020/12/21 03:34:56;;;;;;;18.48;12.15;;;6.00;99.90;;;;;;5091998;28;20536;-84
2020/12/21 03:37:22;;;;;;;18.48;12.65;;;6.00;99.90;;;;;;5092217;28;20283;-83
2020/12/21 03:39:48;;;;;;;18.95;12.75;;;6.00;99.90;;;;;;5092056;28;20296;-81
2020/12/21 03:42:14;;;;;;;19.38;14.25;;;6.00;99.90;;;;;;5092172;28;20318;-84
2020/12/21 03:44:40;;;;;;;18.45;14.07;;;6.00;99.90;;;;;;5092140;28;20267;-82
2020/12/21 03:47:07;;;;;;;17.20;13.03;;;6.00;99.90;;;;;;5091994;28;20611;-82
2020/12/21 03:49:33;;;;;;;15.70;12.35;;;6.10;99.90;;;;;;5092283;28;20541;-82
2020/12/21 03:51:59;;;;;;;14.10;11.55;;;6.10;99.90;;;;;;5094910;28;20655;-84
2020/12/21 03:54:25;;;;;;;15.52;13.63;;;6.10;99.90;;;;;;5095788;28;20261;-83
2020/12/21 03:56:52;;;;;;;16.65;11.77;;;6.10;99.90;;;;;;5095537;28;20267;-82
2020/12/21 03:59:19;;;;;;;16.70;11.93;;;6.10;99.90;;;;;;5095618;28;20181;-84
2020/12/21 04:01:45;;;;;;;15.18;12.05;;;6.10;99.90;;;;;;5095563;28;20655;-84
2020/12/21 04:04:12;;;;;;;15.80;12.88;;;6.10;99.90;;;;;;5095794;28;20188;-81
2020/12/21 04:06:39;;;;;;;18.00;12.68;;;6.20;99.90;;;;;;5095639;28;20283;-81
2020/12/21 04:09:05;;;;;;;17.65;13.30;;;6.20;99.90;;;;;;5095662;28;20365;-82
2020/12/21 04:11:31;;;;;;;15.10;12.75;;;6.20;99.90;;;;;;5095341;28;20191;-82
2020/12/21 04:13:57;;;;;;;18.05;12.77;;;6.20;99.90;;;;;;5095410;28;20205;-81
2020/12/21 04:16:23;;;;;;;20.80;13.20;;;6.10;99.90;;;;;;5095191;28;20616;-81
2020/12/21 04:18:49;;;;;;;16.40;11.88;;;6.00;99.90;;;;;;5095539;28;20224;-81
2020/12/21 04:21:16;;;;;;;17.80;13.13;;;6.10;99.90;;;;;;5095259;28;20216;-83
2020/12/21 04:23:42;;;;;;;18.98;13.07;;;6.10;99.90;;;;;;5095369;28;20279;-83
2020/12/21 04:26:09;;;;;;;17.33;13.50;;;6.10;99.90;;;;;;5095226;28;20185;-81
2020/12/21 04:28:35;;;;;;;17.27;12.95;;;6.00;99.90;;;;;;5095136;28;20849;-81
2020/12/21 04:31:02;;;;;;;20.42;14.23;;;6.00;99.90;;;;;;5094947;28;20219;-81
2020/12/21 04:33:28;;;;;;;17.42;13.45;;;6.00;99.90;;;;;;5095128;28;20292;-81
2020/12/21 04:35:54;;;;;;;18.38;14.07;;;6.00;99.90;;;;;;5095135;28;20272;-83
2020/12/21 04:38:21;;;;;;;16.83;12.55;;;5.90;99.90;;;;;;5094847;28;20213;-85
2020/12/21 04:40:50;;;;;;;19.50;14.82;;;5.90;99.90;;;;;;5094645;28;20216;-85
2020/12/21 04:43:16;;;;;;;20.77;14.27;;;5.90;99.90;;;;;;5094751;28;20220;-85
2020/12/21 04:45:44;;;;;;;20.10;14.68;;;5.80;99.90;;;;;;5094681;28;20275;-85
2020/12/21 04:48:15;;;;;;;16.60;12.80;;;5.80;99.90;;;;;;5094499;28;20189;-85
2020/12/21 04:50:42;;;;;;;18.63;13.65;;;5.70;99.90;;;;;;5094776;28;20216;-85
2020/12/21 04:53:09;;;;;;;18.13;12.73;;;5.60;99.90;;;;;;5094727;28;20271;-82
2020/12/21 04:55:36;;;;;;;16.75;13.40;;;5.60;99.90;;;;;;5078736;28;20709;-83
2020/12/21 04:58:04;;;;;;;19.20;14.25;;;5.70;99.90;;;;;;5094446;28;20295;-83
2020/12/21 05:00:32;;;;;;;22.73;13.48;;;5.70;99.90;;;;;;5085737;28;20223;-83
2020/12/21 05:02:58;;;;;;;19.17;12.27;;;5.70;99.90;;;;;;5094244;28;20640;-83
2020/12/21 05:05:29;;;;;;;18.40;13.40;;;5.70;99.90;;;;;;5094453;28;20288;-83
2020/12/21 05:07:57;;;;;;;17.95;13.18;;;5.70;99.90;;;;;;5080534;28;20544;-85
2020/12/21 05:10:23;;;;;;;19.95;12.65;;;5.70;99.90;;;;;;5094178;28;20267;-84
2020/12/21 05:13:00;;;;;;;20.02;14.10;;;5.70;99.90;;;;;;5099715;28;20218;-84
2020/12/21 05:15:26;;;;;;;15.70;12.55;;;5.70;99.90;;;;;;5095248;28;20195;-84
2020/12/21 05:18:03;;;;;;;20.08;13.85;;;5.70;99.90;;;;;;5094156;28;20219;-84
2020/12/21 05:20:29;;;;;;;20.00;14.10;;;5.70;99.90;;;;;;5094053;28;20208;-82
2020/12/21 05:22:55;;;;;;;17.30;12.75;;;5.80;99.90;;;;;;5093973;28;20334;-82
2020/12/21 05:25:21;;;;;;;19.70;13.13;;;5.80;99.90;;;;;;5094100;28;20189;-81
2020/12/21 05:27:47;;;;;;;19.48;14.43;;;5.80;99.90;;;;;;5094110;28;20542;-81
2020/12/21 05:30:14;;;;;;;18.23;13.27;;;5.80;99.90;;;;;;5094082;28;20267;-81
2020/12/21 05:32:40;;;;;;;14.55;11.77;;;5.90;99.90;;;;;;5093740;28;20612;-81
2020/12/21 05:35:08;;;;;;;17.77;13.38;;;5.90;99.90;;;;;;5093512;28;20288;-84
2020/12/21 05:37:35;;;;;;;20.48;13.02;;;5.90;99.90;;;;;;5093502;28;20283;-84
2020/12/21 05:40:02;;;;;;;16.70;13.02;;;5.90;99.90;;;;;;5093441;28;20745;-83
2020/12/21 05:42:28;;;;;;;22.00;14.65;;;5.90;99.90;;;;;;5093614;28;20613;-83
2020/12/21 05:44:56;;;;;;;34.22;23.48;;;5.90;99.90;;;;;;5093792;28;20271;-83
2020/12/21 05:47:24;;;;;;;19.13;14.65;;;5.90;99.90;;;;;;5093429;28;20279;-85
2020/12/21 05:49:53;;;;;;;20.60;13.27;;;5.90;99.90;;;;;;5093583;28;20267;-82
2020/12/21 05:52:28;;;;;;;18.38;12.65;;;5.90;99.90;;;;;;5093313;28;20579;-82
2020/12/21 05:54:54;;;;;;;18.63;13.40;;;5.90;99.90;;;;;;5093734;28;20286;-82
2020/12/21 05:57:21;;;;;;;19.95;13.00;;;5.90;99.90;;;;;;5093419;28;20299;-81
2020/12/21 05:59:48;;;;;;;18.10;12.77;;;5.90;99.90;;;;;;5090643;28;20706;-82
2020/12/21 06:02:16;;;;;;;17.88;12.98;;;5.90;99.90;;;;;;5093255;28;20196;-82
2020/12/21 06:04:48;;;;;;;15.88;11.60;;;6.00;99.90;;;;;;5093316;28;20287;-83
2020/12/21 06:07:22;;;;;;;18.52;12.27;;;6.00;99.90;;;;;;5076879;28;20193;-83
2020/12/21 06:09:50;;;;;;;17.48;13.48;;;5.90;99.90;;;;;;5093385;28;20185;-83
2020/12/21 06:12:19;;;;;;;17.20;12.20;;;5.90;99.90;;;;;;5093862;28;20189;-83
2020/12/21 06:14:46;;;;;;;17.50;12.30;;;5.90;99.90;;;;;;5096613;28;20184;-81
2020/12/21 06:17:13;;;;;;;18.63;13.05;;;5.80;99.90;;;;;;5092871;28;20226;-83
2020/12/21 06:19:39;;;;;;;17.10;12.57;;;5.80;99.90;;;;;;5093358;28;20272;-82
2020/12/21 06:22:06;;;;;;;18.10;12.27;;;5.80;99.90;;;;;;5093082;28;20276;-82
2020/12/21 06:24:37;;;;;;;15.88;12.73;;;5.70;99.90;;;;;;5093257;28;20280;-81
2020/12/21 06:27:12;;;;;;;18.65;13.15;;;5.70;99.90;;;;;;5092962;28;20254;-80
2020/12/21 06:29:38;;;;;;;18.33;13.50;;;5.70;99.90;;;;;;5092974;28;20184;-82
2020/12/21 06:32:06;;;;;;;22.77;13.02;;;5.60;99.90;;;;;;5092706;28;20640;-82
2020/12/21 06:34:34;;;;;;;24.67;14.48;;;5.70;99.90;;;;;;5093167;28;20197;-81
2020/12/21 06:37:01;;;;;;;20.75;13.80;;;5.70;99.90;;;;;;5092831;28;20227;-81
2020/12/21 06:39:28;;;;;;;22.25;13.35;;;5.70;99.90;;;;;;5092816;28;20221;-82
2020/12/21 06:42:01;;;;;;;16.90;12.63;;;5.70;99.90;;;;;;5092467;28;20210;-83
2020/12/21 06:44:28;;;;;;;18.38;12.23;;;5.70;99.90;;;;;;5092971;28;20185;-83
2020/12/21 06:46:55;;;;;;;20.45;14.32;;;5.70;99.90;;;;;;5092515;28;20701;-83
2020/12/21 06:49:21;;;;;;;18.50;13.10;;;5.70;99.90;;;;;;5092980;28;20268;-83
2020/12/21 06:51:47;;;;;;;16.73;12.10;;;5.60;99.90;;;;;;5092683;28;20196;-83
2020/12/21 06:54:16;;;;;;;17.70;11.85;;;5.60;99.90;;;;;;5092543;28;20271;-82
2020/12/21 06:56:44;;;;;;;16.83;12.48;;;5.60;99.90;;;;;;5092513;28;20671;-83
2020/12/21 06:59:12;;;;;;;20.65;14.48;;;5.60;99.90;;;;;;5092577;28;20683;-83
2020/12/21 07:01:40;;;;;;;16.60;11.98;;;5.60;99.90;;;;;;5092794;28;20219;-83
2020/12/21 07:04:10;;;;;;;15.88;12.20;;;5.60;99.90;;;;;;5092490;28;20249;-83
2020/12/21 07:06:37;;;;;;;14.02;11.40;;;5.60;99.90;;;;;;5093091;28;20185;-84
2020/12/21 07:09:05;;;;;;;19.33;12.50;;;5.60;99.90;;;;;;5092306;28;20551;-83
2020/12/21 07:11:31;;;;;;;18.48;11.93;;;5.60;99.90;;;;;;5092538;28;20611;-84
2020/12/21 07:13:58;;;;;;;20.73;12.07;;;5.70;99.90;;;;;;5097700;28;20194;-82
2020/12/21 07:16:24;;;;;;;20.42;12.93;;;5.70;99.90;;;;;;5092604;28;20272;-82
2020/12/21 07:18:50;;;;;;;18.92;12.50;;;5.70;99.90;;;;;;5092387;28;20303;-82
2020/12/21 07:21:17;;;;;;;18.20;12.60;;;5.70;99.90;;;;;;5092524;28;20215;-83
2020/12/21 07:23:44;;;;;;;17.40;13.55;;;5.70;99.90;;;;;;5092334;28;20203;-83
2020/12/21 07:26:12;;;;;;;20.33;13.48;;;5.60;99.90;;;;;;5096029;28;20271;-83
2020/12/21 07:28:39;;;;;;;15.82;11.80;;;5.60;99.90;;;;;;5096515;28;20277;-81
2020/12/21 07:31:10;;;;;;;17.70;11.68;;;5.50;99.90;;;;;;5096500;28;20216;-83
2020/12/21 07:33:49;;;;;;;17.92;12.15;;;5.50;99.90;;;;;;5096391;28;20275;-83
2020/12/21 07:36:15;;;;;;;20.33;12.35;;;5.40;99.90;;;;;;5096196;28;20199;-83
2020/12/21 07:38:41;;;;;;;16.70;11.50;;;5.30;99.90;;;;;;5096152;28;20252;-83
2020/12/21 07:41:08;;;;;;;18.65;12.80;;;5.20;99.90;;;;;;5096412;28;20442;-83
2020/12/21 07:43:36;;;;;;;19.55;12.95;;;5.20;99.90;;;;;;5096120;28;20208;-83
2020/12/21 07:46:04;;;;;;;21.13;12.40;;;5.20;99.90;;;;;;5096149;28;20590;-83
2020/12/21 07:48:33;;;;;;;17.13;12.48;;;5.20;99.90;;;;;;5096004;28;20192;-83
2020/12/21 07:51:02;;;;;;;16.85;12.73;;;5.20;99.90;;;;;;5095639;28;20181;-83
2020/12/21 07:53:33;;;;;;;19.05;13.70;;;5.30;99.90;;;;;;5096177;28;20241;-82
2020/12/21 07:55:59;;;;;;;18.27;12.40;;;5.30;99.90;;;;;;5095905;28;20193;-83
2020/12/21 07:58:26;;;;;;;17.48;12.32;;;5.40;99.90;;;;;;5095872;28;20213;-83
2020/12/21 08:00:53;;;;;;;18.30;12.02;;;5.30;99.90;;;;;;5095815;28;20212;-83
2020/12/21 08:03:20;;;;;;;18.55;12.25;;;5.40;99.90;;;;;;5095641;28;20329;-83
2020/12/21 08:05:49;;;;;;;18.80;12.65;;;5.50;99.90;;;;;;5095940;28;20576;-83
2020/12/21 08:08:16;;;;;;;18.10;12.40;;;5.50;99.90;;;;;;5095091;28;20204;-83
2020/12/21 08:10:42;;;;;;;17.13;11.68;;;5.60;99.90;;;;;;5095773;28;20180;-82
2020/12/21 08:13:17;;;;;;;16.85;12.40;;;5.70;99.90;;;;;;5100594;28;20582;-82
2020/12/21 08:15:43;;;;;;;18.75;12.90;;;5.70;99.90;;;;;;5095537;28;20191;-81
2020/12/21 08:18:12;;;;;;;18.55;12.55;;;5.70;99.90;;;;;;5094778;28;20342;-81
2020/12/21 08:20:48;;;;;;;20.38;13.25;;;5.90;99.90;;;;;;5095709;28;20280;-82
2020/12/21 08:23:22;;;;;;;17.10;12.50;;;5.90;99.90;;;;;;5078727;28;20180;-82
2020/12/21 08:25:49;;;;;;;20.02;12.90;;;5.90;99.90;;;;;;5095510;28;20236;-82
2020/12/21 08:28:31;;;;;;;19.15;14.32;;;6.00;99.90;;;;;;5095134;28;20196;-81
2020/12/21 08:31:12;;;;;;;19.48;12.63;;;6.00;99.90;;;;;;5095166;28;20643;-81
2020/12/21 08:33:43;;;;;;;16.63;12.10;;;5.90;99.90;;;;;;5095377;28;20268;-81
2020/12/21 08:36:17;;;;;;;19.25;12.38;;;5.90;99.90;;;;;;5094230;28;20208;-82
2020/12/21 08:38:44;;;;;;;16.20;12.23;;;5.90;99.90;;;;;;5094728;28;20243;-81
2020/12/21 08:41:11;;;;;;;15.88;12.25;;;5.90;99.90;;;;;;5095004;28;20723;-82
2020/12/21 08:43:37;;;;;;;19.10;12.05;;;5.90;99.90;;;;;;5095179;28;20230;-81
2020/12/21 08:46:06;;;;;;;19.63;12.80;;;5.80;99.90;;;;;;5094670;28;20702;-81
2020/12/21 08:48:33;;;;;;;19.98;12.77;;;5.80;99.90;;;;;;5094930;28;20191;-81
2020/12/21 08:50:59;;;;;;;19.20;12.15;;;5.80;99.90;;;;;;5094852;28;20216;-81
2020/12/21 08:53:25;;;;;;;22.65;12.40;;;5.70;99.90;;;;;;5094780;28;20277;-81
2020/12/21 08:55:51;;;;;;;21.83;14.00;;;5.60;99.90;;;;;;5094671;28;20585;-80
2020/12/21 08:58:17;;;;;;;18.65;12.38;;;5.60;99.90;;;;;;5094745;28;20311;-81
2020/12/21 09:00:43;;;;;;;18.33;11.73;;;5.60;99.90;;;;;;5094769;28;20216;-81
2020/12/21 09:03:09;;;;;;;16.65;11.82;;;5.50;99.90;;;;;;5094644;28;20215;-81
2020/12/21 09:05:36;;;;;;;17.98;11.73;;;5.50;99.90;;;;;;5094577;28;20258;-81
2020/12/21 09:08:03;;;;;;;14.10;11.57;;;5.50;99.90;;;;;;5094373;28;20196;-81
2020/12/21 09:10:29;;;;;;;23.00;12.48;;;5.50;99.90;;;;;;5094683;28;20188;-81
2020/12/21 09:12:55;;;;;;;20.65;12.80;;;5.50;99.90;;;;;;5092483;28;20199;-81
2020/12/21 09:15:21;;;;;;;17.63;12.43;;;5.60;99.90;;;;;;5094384;28;20287;-82
2020/12/21 09:17:47;;;;;;;16.77;11.77;;;5.50;99.90;;;;;;5094339;28;20632;-81
2020/12/21 09:20:13;;;;;;;16.77;11.95;;;5.50;99.90;;;;;;5094002;28;20691;-82
2020/12/21 09:22:39;;;;;;;14.90;11.13;;;5.50;99.90;;;;;;5094226;28;20707;-81
2020/12/21 09:25:05;;;;;;;15.20;11.43;;;5.60;99.90;;;;;;5094246;28;20276;-81
2020/12/21 09:27:33;;;;;;;15.90;12.52;;;5.70;99.90;;;;;;5094359;28;20529;-81
2020/12/21 09:30:00;;;;;;;16.90;12.48;;;5.70;99.90;;;;;;5091634;28;20181;-81
2020/12/21 09:32:26;;;;;;;15.85;11.68;;;5.70;99.90;;;;;;5094324;28;20634;-80
2020/12/21 09:34:52;;;;;;;18.48;11.95;;;5.70;99.90;;;;;;5094232;28;20668;-80
2020/12/21 09:37:18;;;;;;;16.95;11.55;;;5.70;99.90;;;;;;5093651;28;20238;-81
2020/12/21 09:39:48;;;;;;;16.55;12.32;;;5.70;99.90;;;;;;5093794;28;20354;-81
2020/12/21 09:42:14;;;;;;;15.38;10.77;;;5.70;99.90;;;;;;5077576;28;20208;-80
2020/12/21 09:44:40;;;;;;;17.80;11.17;;;5.70;99.90;;;;;;5093785;28;20220;-81
2020/12/21 09:47:06;;;;;;;16.30;12.25;;;5.60;99.90;;;;;;5093343;28;20490;-81
2020/12/21 09:49:32;;;;;;;16.63;11.98;;;5.70;99.90;;;;;;5093584;28;20284;-81
2020/12/21 09:51:58;;;;;;;16.17;11.77;;;5.70;99.90;;;;;;5093373;28;20582;-81
2020/12/21 09:54:24;;;;;;;19.02;11.95;;;5.70;99.90;;;;;;5093428;28;21040;-81
2020/12/21 09:56:50;;;;;;;13.60;11.40;;;5.70;99.90;;;;;;5093394;28;20223;-81
2020/12/21 09:59:17;;;;;;;15.88;11.40;;;5.70;99.90;;;;;;5092876;28;20561;-81
2020/12/21 10:01:43;;;;;;;18.20;12.43;;;5.70;99.90;;;;;;5093398;28;20276;-81
2020/12/21 10:04:10;;;;;;;17.33;11.60;;;5.70;99.90;;;;;;5093127;28;20220;-81
2020/12/21 10:06:36;;;;;;;14.85;11.45;;;5.70;99.90;;;;;;5093210;28;20929;-82
2020/12/21 10:09:02;;;;;;;17.05;11.88;;;5.80;99.90;;;;;;5093192;28;20271;-82
2020/12/21 10:11:28;;;;;;;13.43;10.90;;;5.70;99.90;;;;;;5093064;28;20761;-81
2020/12/21 10:13:54;;;;;;;14.77;10.13;;;5.80;99.90;;;;;;5090539;28;20181;-82
2020/12/21 10:16:20;;;;;;;16.00;11.50;;;5.80;99.90;;;;;;5090198;28;20529;-82
2020/12/21 10:18:46;;;;;;;14.60;11.20;;;5.80;99.90;;;;;;5092728;28;20618;-81
2020/12/21 10:21:13;;;;;;;15.33;11.23;;;5.90;99.90;;;;;;5092804;28;20446;-81
2020/12/21 10:23:39;;;;;;;12.57;10.50;;;5.90;99.90;;;;;;5083509;28;20459;-81
2020/12/21 10:26:05;;;;;;;14.73;10.52;;;5.90;99.90;;;;;;5100921;28;20267;-82
2020/12/21 10:28:31;;;;;;;13.27;10.40;;;5.90;99.90;;;;;;5095269;28;20551;-82
2020/12/21 10:30:57;;;;;;;13.93;10.70;;;5.90;99.90;;;;;;5099940;28;20537;-82
2020/12/21 10:33:24;;;;;;;12.30;10.30;;;5.90;99.90;;;;;;5101633;28;20191;-82
2020/12/21 10:35:50;;;;;;;15.75;10.60;;;5.90;99.90;;;;;;5096664;28;20493;-81
2020/12/21 10:38:16;;;;;;;13.73;11.17;;;5.90;99.90;;;;;;5092527;28;20287;-81
2020/12/21 10:40:42;;;;;;;11.02;9.05;;;6.00;99.90;;;;;;5092208;28;20560;-82
2020/12/21 10:43:08;;;;;;;14.37;11.00;;;6.00;99.90;;;;;;5092546;28;20180;-82
2020/12/21 10:45:34;;;;;;;13.48;9.68;;;6.00;99.90;;;;;;5092214;28;21021;-82
2020/12/21 10:48:00;;;;;;;17.10;11.30;;;6.00;99.90;;;;;;5092211;28;20232;-82
2020/12/21 10:50:27;;;;;;;16.70;10.50;;;6.00;99.90;;;;;;5088070;28;20504;-82
2020/12/21 10:52:52;;;;;;;14.90;10.30;;;6.00;99.90;;;;;;5091204;28;20997;-84
2020/12/21 10:55:19;;;;;;;12.20;9.80;;;6.00;99.90;;;;;;5090522;28;20188;-81
2020/12/21 10:57:45;;;;;;;13.10;10.13;;;6.10;99.90;;;;;;5089347;28;20558;-81
2020/12/21 11:00:12;;;;;;;15.73;8.90;;;6.10;99.90;;;;;;5091601;28;20607;-81
2020/12/21 11:02:38;;;;;;;14.10;9.80;;;6.10;99.90;;;;;;5091392;28;21010;-79
2020/12/21 11:05:04;;;;;;;14.77;11.15;;;6.10;99.90;;;;;;5092338;28;20584;-78
2020/12/21 11:07:31;;;;;;;14.95;10.30;;;6.10;99.90;;;;;;5090905;28;20184;-79
2020/12/21 11:09:57;;;;;;;11.70;9.80;;;6.10;99.90;;;;;;5107234;28;20272;-85
2020/12/21 11:12:24;;;;;;;11.32;8.93;;;6.10;99.90;;;;;;5093739;28;20279;-83
2020/12/21 11:14:50;;;;;;;16.13;9.07;;;6.10;99.90;;;;;;5100782;28;20264;-84
2020/12/21 11:17:17;;;;;;;14.32;10.00;;;6.10;99.90;;;;;;5091928;28;20223;-80
2020/12/21 11:19:43;;;;;;;14.52;11.02;;;6.00;99.90;;;;;;5092068;28;20220;-80
2020/12/21 11:22:09;;;;;;;12.60;9.80;;;6.10;99.90;;;;;;5089700;28;20207;-80
2020/12/21 11:24:35;;;;;;;10.25;8.88;;;6.10;99.90;;;;;;5092040;28;20936;-80
2020/12/21 11:27:01;;;;;;;11.43;9.50;;;6.20;99.90;;;;;;5091882;28;20185;-81
2020/12/21 11:29:28;;;;;;;15.27;9.90;;;6.20;99.90;;;;;;5091806;28;20193;-81
2020/12/21 11:31:54;;;;;;;9.88;8.73;;;6.20;99.90;;;;;;5077158;28;20196;-81
2020/12/21 11:34:20;;;;;;;13.80;8.13;;;6.20;99.90;;;;;;5091822;28;20220;-81
2020/12/21 11:36:46;;;;;;;13.45;8.43;;;6.20;99.90;;;;;;5091735;28;20482;-82
2020/12/21 11:39:13;;;;;;;16.67;9.85;;;6.20;99.90;;;;;;5091604;28;20223;-81
2020/12/21 11:41:40;;;;;;;11.77;8.48;;;6.20;99.90;;;;;;5091814;28;20272;-81
2020/12/21 11:44:06;;;;;;;9.75;8.18;;;6.20;99.90;;;;;;5091413;28;20263;-82
2020/12/21 11:46:35;;;;;;;11.67;9.07;;;6.20;99.90;;;;;;5091653;28;20212;-83
2020/12/21 11:49:01;;;;;;;13.48;8.90;;;6.20;99.90;;;;;;5098819;28;20537;-82
2020/12/21 11:51:27;;;;;;;14.15;9.38;;;6.30;99.90;;;;;;5093067;28;20220;-82
2020/12/21 11:53:54;;;;;;;13.03;9.20;;;6.30;99.90;;;;;;5091604;28;20207;-81
2020/12/21 11:56:20;;;;;;;12.77;9.85;;;6.30;99.90;;;;;;5091282;28;20497;-83
2020/12/21 11:58:46;;;;;;;12.15;8.43;;;6.30;99.90;;;;;;5091213;28;20636;-83
2020/12/21 12:01:15;;;;;;;12.38;8.65;;;6.30;99.90;;;;;;5091641;28;20271;-83
2020/12/21 12:03:42;;;;;;;13.73;8.20;;;6.40;99.90;;;;;;5090000;28;20272;-83
2020/12/21 12:06:08;;;;;;;10.23;7.78;;;6.40;99.90;;;;;;5091282;28;20288;-84
2020/12/21 12:08:34;;;;;;;13.45;8.85;;;6.40;99.90;;;;;;5091516;28;20268;-83
2020/12/21 12:11:00;;;;;;;10.45;9.38;;;6.50;99.90;;;;;;5089226;28;20924;-83
2020/12/21 12:13:26;;;;;;;14.00;8.98;;;6.50;99.90;;;;;;5087355;28;20189;-82
2020/12/21 12:15:52;;;;;;;12.15;7.45;;;6.50;99.90;;;;;;5084193;28;20275;-82
2020/12/21 12:18:18;;;;;;;14.40;8.63;;;6.60;99.90;;;;;;5094106;28;20219;-80
2020/12/21 12:20:45;;;;;;;14.93;8.40;;;6.50;99.90;;;;;;5094819;28;20587;-83
2020/12/21 12:23:11;;;;;;;10.27;8.65;;;6.50;99.90;;;;;;5094521;28;20530;-80
2020/12/21 12:25:37;;;;;;;10.18;8.73;;;6.50;99.90;;;;;;5095878;28;20216;-80
2020/12/21 12:28:03;;;;;;;10.90;8.68;;;6.50;99.90;;;;;;5094591;28;20180;-81
2020/12/21 12:30:29;;;;;;;11.65;8.25;;;6.50;99.90;;;;;;5083266;28;20208;-81
2020/12/21 12:32:55;;;;;;;10.60;8.02;;;6.50;99.90;;;;;;5091871;28;20751;-81
2020/12/21 12:35:21;;;;;;;9.90;7.85;;;6.50;99.90;;;;;;5094083;28;20235;-81
2020/12/21 12:37:48;;;;;;;9.73;7.75;;;6.50;99.90;;;;;;5094399;28;20185;-81